sensor_id;sensor_type;location;lat;lon;timestamp;P1;durP1;ratioP1;P2;durP2;ratioP2
70667;SDS011;58242;51.250;-1.118;2023-04-03T00:00:09;4.25;;;2.90;;
70667;SDS011;58242;51.250;-1.118;2023-04-03T00:02:35;2.88;;;2.47;;
70667;SDS011;58242;51.250;-1.118;2023-04-03T00:05:01;3.88;;;2.28;;
70667;SDS011;58242;51.250;-1.118;2023-04-03T00:07:26;2.83;;;2.58;;
70667;SDS011;58242;51.250;-1.118;2023-04-03T00:09:51;3.25;;;2.30;;
70667;SDS011;58242;51.250;-1.118;2023-04-03T00:12:17;3.10;;;2.42;;
70667;SDS011;58242;51.250;-1.118;2023-04-03T00:14:42;3.42;;;2.55;;
70667;SDS011;58242;51.250;-1.118;2023-04-03T00:17:07;6.65;;;2.72;;
70667;SDS011;58242;51.250;-1.118;2023-04-03T00:19:33;3.72;;;2.42;;
70667;SDS011;58242;51.250;-1.118;2023-04-03T00:21:58;2.80;;;2.53;;
70667;SDS011;58242;51.250;-1.118;2023-04-03T00:24:23;4.05;;;2.30;;
70667;SDS011;58242;51.250;-1.118;2023-04-03T00:26:49;3.42;;;2.63;;
70667;SDS011;58242;51.250;-1.118;2023-04-03T00:29:14;3.30;;;2.35;;
70667;SDS011;58242;51.250;-1.118;2023-04-03T00:31:39;2.53;;;2.08;;
70667;SDS011;58242;51.250;-1.118;2023-04-03T00:34:05;2.47;;;2.28;;
70667;SDS011;58242;51.250;-1.118;2023-04-03T00:36:30;2.08;;;1.90;;
70667;SDS011;58242;51.250;-1.118;2023-04-03T00:38:56;2.60;;;2.40;;
70667;SDS011;58242;51.250;-1.118;2023-04-03T00:41:21;3.60;;;2.08;;
70667;SDS011;58242;51.250;-1.118;2023-04-03T00:43:46;3.78;;;2.10;;
70667;SDS011;58242;51.250;-1.118;2023-04-03T00:46:12;6.47;;;2.22;;
70667;SDS011;58242;51.250;-1.118;2023-04-03T00:48:41;4.75;;;2.53;;
70667;SDS011;58242;51.250;-1.118;2023-04-03T00:51:30;2.03;;;1.92;;
70667;SDS011;58242;51.250;-1.118;2023-04-03T00:53:55;3.83;;;2.60;;
70667;SDS011;58242;51.250;-1.118;2023-04-03T00:56:27;2.63;;;2.20;;
70667;SDS011;58242;51.250;-1.118;2023-04-03T00:58:59;2.22;;;2.00;;
70667;SDS011;58242;51.250;-1.118;2023-04-03T01:01:29;2.60;;;1.90;;
70667;SDS011;58242;51.250;-1.118;2023-04-03T01:03:55;2.63;;;2.17;;
70667;SDS011;58242;51.250;-1.118;2023-04-03T01:06:21;1.88;;;1.77;;
70667;SDS011;58242;51.250;-1.118;2023-04-03T01:08:51;2.88;;;2.00;;
70667;SDS011;58242;51.250;-1.118;2023-04-03T01:11:16;3.38;;;2.38;;
70667;SDS011;58242;51.250;-1.118;2023-04-03T01:13:42;2.53;;;2.33;;
70667;SDS011;58242;51.250;-1.118;2023-04-03T01:16:07;3.90;;;2.50;;
70667;SDS011;58242;51.250;-1.118;2023-04-03T01:18:33;3.85;;;2.20;;
70667;SDS011;58242;51.250;-1.118;2023-04-03T01:26:35;2.30;;;2.10;;
70667;SDS011;58242;51.250;-1.118;2023-04-03T01:29:01;1.60;;;1.50;;
70667;SDS011;58242;51.250;-1.118;2023-04-03T01:34:16;2.10;;;1.90;;
70667;SDS011;58242;51.250;-1.118;2023-04-03T01:36:42;2.10;;;1.88;;
70667;SDS011;58242;51.250;-1.118;2023-04-03T01:39:08;2.78;;;2.08;;
70667;SDS011;58242;51.250;-1.118;2023-04-03T01:41:33;1.88;;;1.77;;
70667;SDS011;58242;51.250;-1.118;2023-04-03T01:43:59;1.77;;;1.65;;
70667;SDS011;58242;51.250;-1.118;2023-04-03T01:46:24;2.00;;;1.80;;
70667;SDS011;58242;51.250;-1.118;2023-04-03T01:48:50;3.65;;;1.92;;
70667;SDS011;58242;51.250;-1.118;2023-04-03T01:51:15;2.10;;;2.00;;
70667;SDS011;58242;51.250;-1.118;2023-04-03T01:53:41;2.33;;;1.60;;
70667;SDS011;58242;51.250;-1.118;2023-04-03T01:56:06;2.20;;;2.00;;
70667;SDS011;58242;51.250;-1.118;2023-04-03T01:58:32;1.95;;;1.85;;
70667;SDS011;58242;51.250;-1.118;2023-04-03T02:00:57;3.22;;;2.00;;
70667;SDS011;58242;51.250;-1.118;2023-04-03T02:03:23;3.10;;;2.10;;
70667;SDS011;58242;51.250;-1.118;2023-04-03T02:05:49;2.40;;;2.10;;
70667;SDS011;58242;51.250;-1.118;2023-04-03T02:08:14;1.90;;;1.80;;
70667;SDS011;58242;51.250;-1.118;2023-04-03T02:10:41;2.70;;;2.03;;
70667;SDS011;58242;51.250;-1.118;2023-04-03T02:13:06;3.28;;;1.90;;
70667;SDS011;58242;51.250;-1.118;2023-04-03T02:15:31;2.35;;;2.15;;
70667;SDS011;58242;51.250;-1.118;2023-04-03T02:17:56;1.85;;;1.75;;
70667;SDS011;58242;51.250;-1.118;2023-04-03T02:20:22;3.63;;;2.33;;
70667;SDS011;58242;51.250;-1.118;2023-04-03T02:22:47;2.42;;;2.22;;
70667;SDS011;58242;51.250;-1.118;2023-04-03T02:25:13;2.78;;;1.90;;
70667;SDS011;58242;51.250;-1.118;2023-04-03T02:27:39;4.63;;;2.08;;
70667;SDS011;58242;51.250;-1.118;2023-04-03T02:30:05;3.15;;;2.10;;
70667;SDS011;58242;51.250;-1.118;2023-04-03T02:32:31;1.92;;;1.75;;
70667;SDS011;58242;51.250;-1.118;2023-04-03T02:34:56;4.22;;;2.00;;
70667;SDS011;58242;51.250;-1.118;2023-04-03T02:37:22;2.08;;;1.98;;
70667;SDS011;58242;51.250;-1.118;2023-04-03T02:39:47;2.00;;;1.90;;
70667;SDS011;58242;51.250;-1.118;2023-04-03T02:42:13;2.33;;;2.13;;
70667;SDS011;58242;51.250;-1.118;2023-04-03T02:44:38;2.20;;;2.10;;
70667;SDS011;58242;51.250;-1.118;2023-04-03T02:47:04;2.30;;;1.90;;
70667;SDS011;58242;51.250;-1.118;2023-04-03T02:49:30;2.15;;;1.80;;
70667;SDS011;58242;51.250;-1.118;2023-04-03T02:51:56;1.92;;;1.83;;
70667;SDS011;58242;51.250;-1.118;2023-04-03T02:54:21;3.47;;;2.25;;
70667;SDS011;58242;51.250;-1.118;2023-04-03T02:56:48;2.45;;;2.25;;
70667;SDS011;58242;51.250;-1.118;2023-04-03T02:59:13;2.20;;;1.98;;
70667;SDS011;58242;51.250;-1.118;2023-04-03T03:01:39;2.40;;;2.20;;
70667;SDS011;58242;51.250;-1.118;2023-04-03T03:04:04;2.63;;;2.22;;
70667;SDS011;58242;51.250;-1.118;2023-04-03T03:06:30;2.25;;;2.10;;
70667;SDS011;58242;51.250;-1.118;2023-04-03T03:08:55;3.35;;;2.00;;
70667;SDS011;58242;51.250;-1.118;2023-04-03T03:11:20;2.25;;;1.80;;
70667;SDS011;58242;51.250;-1.118;2023-04-03T03:13:46;1.95;;;1.70;;
70667;SDS011;58242;51.250;-1.118;2023-04-03T03:16:11;1.80;;;1.70;;
70667;SDS011;58242;51.250;-1.118;2023-04-03T03:18:36;2.10;;;2.00;;
70667;SDS011;58242;51.250;-1.118;2023-04-03T03:21:02;3.67;;;1.90;;
70667;SDS011;58242;51.250;-1.118;2023-04-03T03:23:28;1.92;;;1.60;;
70667;SDS011;58242;51.250;-1.118;2023-04-03T03:25:57;1.90;;;1.80;;
70667;SDS011;58242;51.250;-1.118;2023-04-03T03:28:24;2.25;;;1.88;;
70667;SDS011;58242;51.250;-1.118;2023-04-03T03:30:50;2.67;;;1.83;;
70667;SDS011;58242;51.250;-1.118;2023-04-03T03:33:15;1.70;;;1.60;;
70667;SDS011;58242;51.250;-1.118;2023-04-03T03:35:42;1.98;;;1.88;;
70667;SDS011;58242;51.250;-1.118;2023-04-03T03:38:08;3.17;;;2.03;;
70667;SDS011;58242;51.250;-1.118;2023-04-03T03:40:33;2.47;;;1.95;;
70667;SDS011;58242;51.250;-1.118;2023-04-03T03:42:58;1.60;;;1.50;;
70667;SDS011;58242;51.250;-1.118;2023-04-03T03:45:23;2.05;;;1.92;;
70667;SDS011;58242;51.250;-1.118;2023-04-03T03:47:49;2.15;;;1.73;;
70667;SDS011;58242;51.250;-1.118;2023-04-03T03:50:15;2.40;;;2.20;;
70667;SDS011;58242;51.250;-1.118;2023-04-03T03:52:40;1.50;;;1.48;;
70667;SDS011;58242;51.250;-1.118;2023-04-03T03:55:06;1.98;;;1.80;;
70667;SDS011;58242;51.250;-1.118;2023-04-03T03:57:31;3.33;;;2.00;;
70667;SDS011;58242;51.250;-1.118;2023-04-03T03:59:56;1.90;;;1.75;;
70667;SDS011;58242;51.250;-1.118;2023-04-03T04:02:22;2.15;;;2.00;;
70667;SDS011;58242;51.250;-1.118;2023-04-03T04:04:47;3.92;;;1.80;;
70667;SDS011;58242;51.250;-1.118;2023-04-03T04:07:13;2.63;;;1.90;;
70667;SDS011;58242;51.250;-1.118;2023-04-03T04:09:39;2.42;;;1.98;;
70667;SDS011;58242;51.250;-1.118;2023-04-03T04:12:04;2.20;;;2.00;;
70667;SDS011;58242;51.250;-1.118;2023-04-03T04:14:29;2.22;;;1.75;;
70667;SDS011;58242;51.250;-1.118;2023-04-03T04:16:54;2.20;;;2.00;;
70667;SDS011;58242;51.250;-1.118;2023-04-03T04:19:20;2.28;;;1.73;;
70667;SDS011;58242;51.250;-1.118;2023-04-03T04:21:45;2.10;;;1.98;;
70667;SDS011;58242;51.250;-1.118;2023-04-03T04:24:10;1.60;;;1.60;;
70667;SDS011;58242;51.250;-1.118;2023-04-03T04:26:36;3.70;;;2.33;;
70667;SDS011;58242;51.250;-1.118;2023-04-03T04:29:01;1.83;;;1.73;;
70667;SDS011;58242;51.250;-1.118;2023-04-03T04:31:26;1.77;;;1.67;;
70667;SDS011;58242;51.250;-1.118;2023-04-03T04:33:52;2.90;;;1.70;;
70667;SDS011;58242;51.250;-1.118;2023-04-03T04:36:18;2.13;;;1.90;;
70667;SDS011;58242;51.250;-1.118;2023-04-03T04:38:43;2.95;;;2.10;;
70667;SDS011;58242;51.250;-1.118;2023-04-03T04:41:09;2.47;;;1.85;;
70667;SDS011;58242;51.250;-1.118;2023-04-03T04:43:34;2.65;;;2.40;;
70667;SDS011;58242;51.250;-1.118;2023-04-03T04:46:03;2.10;;;1.90;;
70667;SDS011;58242;51.250;-1.118;2023-04-03T04:48:37;1.50;;;1.50;;
70667;SDS011;58242;51.250;-1.118;2023-04-03T04:51:02;2.42;;;1.77;;
70667;SDS011;58242;51.250;-1.118;2023-04-03T04:53:28;3.70;;;2.20;;
70667;SDS011;58242;51.250;-1.118;2023-04-03T04:55:53;2.80;;;1.85;;
70667;SDS011;58242;51.250;-1.118;2023-04-03T04:58:19;2.28;;;2.08;;
70667;SDS011;58242;51.250;-1.118;2023-04-03T05:00:45;1.63;;;1.52;;
70667;SDS011;58242;51.250;-1.118;2023-04-03T05:03:10;2.50;;;1.70;;
70667;SDS011;58242;51.250;-1.118;2023-04-03T05:05:35;2.90;;;2.05;;
70667;SDS011;58242;51.250;-1.118;2023-04-03T05:08:01;2.53;;;1.98;;
70667;SDS011;58242;51.250;-1.118;2023-04-03T05:10:28;2.15;;;1.75;;
70667;SDS011;58242;51.250;-1.118;2023-04-03T05:12:53;1.75;;;1.60;;
70667;SDS011;58242;51.250;-1.118;2023-04-03T05:15:18;2.22;;;1.60;;
70667;SDS011;58242;51.250;-1.118;2023-04-03T05:17:45;2.30;;;2.20;;
70667;SDS011;58242;51.250;-1.118;2023-04-03T05:20:10;3.30;;;1.75;;
70667;SDS011;58242;51.250;-1.118;2023-04-03T05:22:36;1.60;;;1.52;;
70667;SDS011;58242;51.250;-1.118;2023-04-03T05:25:01;2.05;;;1.95;;
70667;SDS011;58242;51.250;-1.118;2023-04-03T05:27:27;3.92;;;2.15;;
70667;SDS011;58242;51.250;-1.118;2023-04-03T05:29:55;4.10;;;2.03;;
70667;SDS011;58242;51.250;-1.118;2023-04-03T05:32:21;2.05;;;1.92;;
70667;SDS011;58242;51.250;-1.118;2023-04-03T05:34:47;1.80;;;1.70;;
70667;SDS011;58242;51.250;-1.118;2023-04-03T05:37:12;2.00;;;1.80;;
70667;SDS011;58242;51.250;-1.118;2023-04-03T05:39:38;1.80;;;1.70;;
70667;SDS011;58242;51.250;-1.118;2023-04-03T05:42:05;2.08;;;1.98;;
70667;SDS011;58242;51.250;-1.118;2023-04-03T05:44:31;2.25;;;1.98;;
70667;SDS011;58242;51.250;-1.118;2023-04-03T05:46:57;1.88;;;1.75;;
70667;SDS011;58242;51.250;-1.118;2023-04-03T05:49:22;2.67;;;2.20;;
70667;SDS011;58242;51.250;-1.118;2023-04-03T05:51:47;2.90;;;1.90;;
70667;SDS011;58242;51.250;-1.118;2023-04-03T05:54:19;2.35;;;2.05;;
70667;SDS011;58242;51.250;-1.118;2023-04-03T05:56:48;3.33;;;2.15;;
70667;SDS011;58242;51.250;-1.118;2023-04-03T05:59:14;2.00;;;1.80;;
70667;SDS011;58242;51.250;-1.118;2023-04-03T06:01:39;2.00;;;1.90;;
70667;SDS011;58242;51.250;-1.118;2023-04-03T06:04:05;2.17;;;2.08;;
70667;SDS011;58242;51.250;-1.118;2023-04-03T06:06:50;1.95;;;1.88;;
70667;SDS011;58242;51.250;-1.118;2023-04-03T06:09:18;2.22;;;2.13;;
70667;SDS011;58242;51.250;-1.118;2023-04-03T06:11:45;2.13;;;1.98;;
70667;SDS011;58242;51.250;-1.118;2023-04-03T06:14:11;2.30;;;2.10;;
70667;SDS011;58242;51.250;-1.118;2023-04-03T06:16:37;1.80;;;1.70;;
70667;SDS011;58242;51.250;-1.118;2023-04-03T06:19:04;1.92;;;1.83;;
70667;SDS011;58242;51.250;-1.118;2023-04-03T06:21:30;1.70;;;1.60;;
70667;SDS011;58242;51.250;-1.118;2023-04-03T06:23:56;1.98;;;1.70;;
70667;SDS011;58242;51.250;-1.118;2023-04-03T06:26:21;1.70;;;1.60;;
70667;SDS011;58242;51.250;-1.118;2023-04-03T06:28:47;2.28;;;1.70;;
70667;SDS011;58242;51.250;-1.118;2023-04-03T06:31:12;1.30;;;1.30;;
70667;SDS011;58242;51.250;-1.118;2023-04-03T06:33:38;1.70;;;1.60;;
70667;SDS011;58242;51.250;-1.118;2023-04-03T06:36:03;1.67;;;1.58;;
70667;SDS011;58242;51.250;-1.118;2023-04-03T06:38:30;1.65;;;1.52;;
70667;SDS011;58242;51.250;-1.118;2023-04-03T06:40:55;2.30;;;2.00;;
70667;SDS011;58242;51.250;-1.118;2023-04-03T06:43:21;2.97;;;1.73;;
70667;SDS011;58242;51.250;-1.118;2023-04-03T06:45:47;2.10;;;1.85;;
70667;SDS011;58242;51.250;-1.118;2023-04-03T06:48:12;1.90;;;1.80;;
70667;SDS011;58242;51.250;-1.118;2023-04-03T06:50:38;2.22;;;2.03;;
70667;SDS011;58242;51.250;-1.118;2023-04-03T06:53:03;1.90;;;1.80;;
70667;SDS011;58242;51.250;-1.118;2023-04-03T06:55:29;1.90;;;1.80;;
70667;SDS011;58242;51.250;-1.118;2023-04-03T06:57:54;2.10;;;2.00;;
70667;SDS011;58242;51.250;-1.118;2023-04-03T07:00:20;2.38;;;1.90;;
70667;SDS011;58242;51.250;-1.118;2023-04-03T07:02:46;2.38;;;2.17;;
70667;SDS011;58242;51.250;-1.118;2023-04-03T07:05:11;2.65;;;2.33;;
70667;SDS011;58242;51.250;-1.118;2023-04-03T07:07:38;3.03;;;2.75;;
70667;SDS011;58242;51.250;-1.118;2023-04-03T07:10:04;2.20;;;1.92;;
70667;SDS011;58242;51.250;-1.118;2023-04-03T07:12:31;3.00;;;2.70;;
70667;SDS011;58242;51.250;-1.118;2023-04-03T07:14:56;3.13;;;2.20;;
70667;SDS011;58242;51.250;-1.118;2023-04-03T07:17:22;3.45;;;2.70;;
70667;SDS011;58242;51.250;-1.118;2023-04-03T07:19:47;2.67;;;2.47;;
70667;SDS011;58242;51.250;-1.118;2023-04-03T07:22:12;3.83;;;2.72;;
70667;SDS011;58242;51.250;-1.118;2023-04-03T07:24:37;3.33;;;2.50;;
70667;SDS011;58242;51.250;-1.118;2023-04-03T07:27:03;2.53;;;2.40;;
70667;SDS011;58242;51.250;-1.118;2023-04-03T07:29:28;4.53;;;3.05;;
70667;SDS011;58242;51.250;-1.118;2023-04-03T07:31:54;2.55;;;2.25;;
70667;SDS011;58242;51.250;-1.118;2023-04-03T07:34:21;2.42;;;2.15;;
70667;SDS011;58242;51.250;-1.118;2023-04-03T07:36:46;3.13;;;2.45;;
70667;SDS011;58242;51.250;-1.118;2023-04-03T07:39:12;3.67;;;2.65;;
70667;SDS011;58242;51.250;-1.118;2023-04-03T07:41:37;2.65;;;2.45;;
70667;SDS011;58242;51.250;-1.118;2023-04-03T07:44:03;3.13;;;2.83;;
70667;SDS011;58242;51.250;-1.118;2023-04-03T07:46:29;2.90;;;2.55;;
70667;SDS011;58242;51.250;-1.118;2023-04-03T07:48:55;2.70;;;2.50;;
70667;SDS011;58242;51.250;-1.118;2023-04-03T07:51:20;4.40;;;2.90;;
70667;SDS011;58242;51.250;-1.118;2023-04-03T07:53:45;5.60;;;3.00;;
70667;SDS011;58242;51.250;-1.118;2023-04-03T07:56:11;3.17;;;2.90;;
70667;SDS011;58242;51.250;-1.118;2023-04-03T07:58:36;4.15;;;2.88;;
70667;SDS011;58242;51.250;-1.118;2023-04-03T08:01:02;3.03;;;2.53;;
70667;SDS011;58242;51.250;-1.118;2023-04-03T08:03:27;4.07;;;3.15;;
70667;SDS011;58242;51.250;-1.118;2023-04-03T08:05:53;3.50;;;2.90;;
70667;SDS011;58242;51.250;-1.118;2023-04-03T08:08:19;3.75;;;3.00;;
70667;SDS011;58242;51.250;-1.118;2023-04-03T08:10:52;3.83;;;3.08;;
70667;SDS011;58242;51.250;-1.118;2023-04-03T08:13:19;4.75;;;3.20;;
70667;SDS011;58242;51.250;-1.118;2023-04-03T08:15:45;4.60;;;2.72;;
70667;SDS011;58242;51.250;-1.118;2023-04-03T08:18:11;3.45;;;2.72;;
70667;SDS011;58242;51.250;-1.118;2023-04-03T08:20:38;3.42;;;2.85;;
70667;SDS011;58242;51.250;-1.118;2023-04-03T08:23:04;3.60;;;2.25;;
70667;SDS011;58242;51.250;-1.118;2023-04-03T08:25:30;2.83;;;2.20;;
70667;SDS011;58242;51.250;-1.118;2023-04-03T08:27:55;3.40;;;2.40;;
70667;SDS011;58242;51.250;-1.118;2023-04-03T08:30:21;4.90;;;2.35;;
70667;SDS011;58242;51.250;-1.118;2023-04-03T08:32:46;3.38;;;1.80;;
70667;SDS011;58242;51.250;-1.118;2023-04-03T08:35:12;2.75;;;2.53;;
70667;SDS011;58242;51.250;-1.118;2023-04-03T08:37:37;3.38;;;2.40;;
70667;SDS011;58242;51.250;-1.118;2023-04-03T08:40:05;4.30;;;2.88;;
70667;SDS011;58242;51.250;-1.118;2023-04-03T08:50:41;2.58;;;2.17;;
70667;SDS011;58242;51.250;-1.118;2023-04-03T08:53:23;3.05;;;2.22;;
70667;SDS011;58242;51.250;-1.118;2023-04-03T08:55:53;4.55;;;2.30;;
70667;SDS011;58242;51.250;-1.118;2023-04-03T08:58:21;5.03;;;2.08;;
70667;SDS011;58242;51.250;-1.118;2023-04-03T09:03:44;2.65;;;2.45;;
70667;SDS011;58242;51.250;-1.118;2023-04-03T09:06:14;5.07;;;2.72;;
70667;SDS011;58242;51.250;-1.118;2023-04-03T09:16:56;2.55;;;2.17;;
70667;SDS011;58242;51.250;-1.118;2023-04-03T09:21:59;2.75;;;2.05;;
70667;SDS011;58242;51.250;-1.118;2023-04-03T09:24:36;2.15;;;1.95;;
70667;SDS011;58242;51.250;-1.118;2023-04-03T09:27:06;2.60;;;2.35;;
70667;SDS011;58242;51.250;-1.118;2023-04-03T09:29:35;2.72;;;2.25;;
70667;SDS011;58242;51.250;-1.118;2023-04-03T09:32:47;2.28;;;1.90;;
70667;SDS011;58242;51.250;-1.118;2023-04-03T09:34:59;2.15;;;1.95;;
70667;SDS011;58242;51.250;-1.118;2023-04-03T09:37:41;3.13;;;2.42;;
70667;SDS011;58242;51.250;-1.118;2023-04-03T09:43:01;3.85;;;2.88;;
70667;SDS011;58242;51.250;-1.118;2023-04-03T09:45:34;2.95;;;2.53;;
70667;SDS011;58242;51.250;-1.118;2023-04-03T09:48:08;2.97;;;2.65;;
70667;SDS011;58242;51.250;-1.118;2023-04-03T09:56:25;3.15;;;2.40;;
70667;SDS011;58242;51.250;-1.118;2023-04-03T10:04:14;2.90;;;2.33;;
70667;SDS011;58242;51.250;-1.118;2023-04-03T10:09:17;3.50;;;3.17;;
70667;SDS011;58242;51.250;-1.118;2023-04-03T10:14:24;4.22;;;3.20;;
70667;SDS011;58242;51.250;-1.118;2023-04-03T10:17:02;5.38;;;3.00;;
70667;SDS011;58242;51.250;-1.118;2023-04-03T10:22:45;3.72;;;2.90;;
70667;SDS011;58242;51.250;-1.118;2023-04-03T10:27:56;4.13;;;2.50;;
70667;SDS011;58242;51.250;-1.118;2023-04-03T10:38:23;3.30;;;2.97;;
70667;SDS011;58242;51.250;-1.118;2023-04-03T10:43:52;2.88;;;2.50;;
70667;SDS011;58242;51.250;-1.118;2023-04-03T10:46:35;4.47;;;2.72;;
70667;SDS011;58242;51.250;-1.118;2023-04-03T10:49:28;4.10;;;2.70;;
70667;SDS011;58242;51.250;-1.118;2023-04-03T10:52:17;3.58;;;2.70;;
70667;SDS011;58242;51.250;-1.118;2023-04-03T10:54:51;3.05;;;2.70;;
70667;SDS011;58242;51.250;-1.118;2023-04-03T10:57:38;3.30;;;2.80;;
70667;SDS011;58242;51.250;-1.118;2023-04-03T11:00:06;3.05;;;2.60;;
70667;SDS011;58242;51.250;-1.118;2023-04-03T11:02:41;3.13;;;2.55;;
70667;SDS011;58242;51.250;-1.118;2023-04-03T11:08:27;2.58;;;2.38;;
70667;SDS011;58242;51.250;-1.118;2023-04-03T11:10:55;3.10;;;2.78;;
70667;SDS011;58242;51.250;-1.118;2023-04-03T11:13:45;2.70;;;2.50;;
70667;SDS011;58242;51.250;-1.118;2023-04-03T11:16:24;2.80;;;2.58;;
70667;SDS011;58242;51.250;-1.118;2023-04-03T11:18:56;5.45;;;2.70;;
70667;SDS011;58242;51.250;-1.118;2023-04-03T11:21:29;4.53;;;2.88;;
70667;SDS011;58242;51.250;-1.118;2023-04-03T11:24:00;6.55;;;3.50;;
70667;SDS011;58242;51.250;-1.118;2023-04-03T11:26:30;3.00;;;2.80;;
70667;SDS011;58242;51.250;-1.118;2023-04-03T11:29:03;3.33;;;3.03;;
70667;SDS011;58242;51.250;-1.118;2023-04-03T11:31:38;3.20;;;2.72;;
70667;SDS011;58242;51.250;-1.118;2023-04-03T11:36:58;3.30;;;3.00;;
70667;SDS011;58242;51.250;-1.118;2023-04-03T11:39:26;3.50;;;3.20;;
70667;SDS011;58242;51.250;-1.118;2023-04-03T11:41:55;2.63;;;2.42;;
70667;SDS011;58242;51.250;-1.118;2023-04-03T11:44:39;4.70;;;3.45;;
70667;SDS011;58242;51.250;-1.118;2023-04-03T11:47:05;6.47;;;3.65;;
70667;SDS011;58242;51.250;-1.118;2023-04-03T11:49:52;4.03;;;3.72;;
70667;SDS011;58242;51.250;-1.118;2023-04-03T11:57:44;3.90;;;2.90;;
70667;SDS011;58242;51.250;-1.118;2023-04-03T12:00:57;4.00;;;3.70;;
70667;SDS011;58242;51.250;-1.118;2023-04-03T12:06:42;3.67;;;3.40;;
70667;SDS011;58242;51.250;-1.118;2023-04-03T12:16:29;2.72;;;2.63;;
70667;SDS011;58242;51.250;-1.118;2023-04-03T12:37:57;2.40;;;2.30;;
70667;SDS011;58242;51.250;-1.118;2023-04-03T12:46:47;3.42;;;2.65;;
70667;SDS011;58242;51.250;-1.118;2023-04-03T12:52:23;2.80;;;2.60;;
70667;SDS011;58242;51.250;-1.118;2023-04-03T12:54:53;3.13;;;2.03;;
70667;SDS011;58242;51.250;-1.118;2023-04-03T12:57:28;2.50;;;2.15;;
70667;SDS011;58242;51.250;-1.118;2023-04-03T12:59:53;2.47;;;2.28;;
70667;SDS011;58242;51.250;-1.118;2023-04-03T13:04:53;2.60;;;2.38;;
70667;SDS011;58242;51.250;-1.118;2023-04-03T13:07:24;2.75;;;2.53;;
70667;SDS011;58242;51.250;-1.118;2023-04-03T13:10:01;2.45;;;2.25;;
70667;SDS011;58242;51.250;-1.118;2023-04-03T13:12:33;2.03;;;1.90;;
70667;SDS011;58242;51.250;-1.118;2023-04-03T13:15:01;2.50;;;2.25;;
70667;SDS011;58242;51.250;-1.118;2023-04-03T13:17:38;2.47;;;2.08;;
70667;SDS011;58242;51.250;-1.118;2023-04-03T13:23:05;2.38;;;2.17;;
70667;SDS011;58242;51.250;-1.118;2023-04-03T13:25:34;2.45;;;2.25;;
70667;SDS011;58242;51.250;-1.118;2023-04-03T13:28:05;2.40;;;2.20;;
70667;SDS011;58242;51.250;-1.118;2023-04-03T13:30:33;2.33;;;2.13;;
70667;SDS011;58242;51.250;-1.118;2023-04-03T13:33:02;2.10;;;1.90;;
70667;SDS011;58242;51.250;-1.118;2023-04-03T13:35:36;2.28;;;2.10;;
70667;SDS011;58242;51.250;-1.118;2023-04-03T13:40:52;2.33;;;2.13;;
70667;SDS011;58242;51.250;-1.118;2023-04-03T13:43:25;2.45;;;2.22;;
70667;SDS011;58242;51.250;-1.118;2023-04-03T13:45:56;2.55;;;2.22;;
70667;SDS011;58242;51.250;-1.118;2023-04-03T13:48:37;4.80;;;2.15;;
70667;SDS011;58242;51.250;-1.118;2023-04-03T13:51:04;2.58;;;2.38;;
70667;SDS011;58242;51.250;-1.118;2023-04-03T13:53:45;2.03;;;1.92;;
70667;SDS011;58242;51.250;-1.118;2023-04-03T13:56:17;2.25;;;2.05;;
70667;SDS011;58242;51.250;-1.118;2023-04-03T13:58:54;1.90;;;1.80;;
70667;SDS011;58242;51.250;-1.118;2023-04-03T14:01:39;2.38;;;1.83;;
70667;SDS011;58242;51.250;-1.118;2023-04-03T14:04:13;2.35;;;2.10;;
70667;SDS011;58242;51.250;-1.118;2023-04-03T14:06:42;2.35;;;2.00;;
70667;SDS011;58242;51.250;-1.118;2023-04-03T14:09:08;2.35;;;2.15;;
70667;SDS011;58242;51.250;-1.118;2023-04-03T14:11:34;2.72;;;2.10;;
70667;SDS011;58242;51.250;-1.118;2023-04-03T14:14:01;2.83;;;2.53;;
70667;SDS011;58242;51.250;-1.118;2023-04-03T14:16:32;1.80;;;1.70;;
70667;SDS011;58242;51.250;-1.118;2023-04-03T14:19:02;3.97;;;2.67;;
70667;SDS011;58242;51.250;-1.118;2023-04-03T14:21:28;3.47;;;2.40;;
70667;SDS011;58242;51.250;-1.118;2023-04-03T14:23:53;2.60;;;2.38;;
70667;SDS011;58242;51.250;-1.118;2023-04-03T14:26:20;2.63;;;2.42;;
70667;SDS011;58242;51.250;-1.118;2023-04-03T14:28:50;2.45;;;1.98;;
70667;SDS011;58242;51.250;-1.118;2023-04-03T14:31:17;2.40;;;2.20;;
70667;SDS011;58242;51.250;-1.118;2023-04-03T14:33:43;2.33;;;2.22;;
70667;SDS011;58242;51.250;-1.118;2023-04-03T14:36:30;3.03;;;2.47;;
70667;SDS011;58242;51.250;-1.118;2023-04-03T14:38:55;2.80;;;2.30;;
70667;SDS011;58242;51.250;-1.118;2023-04-03T14:41:23;4.30;;;2.85;;
70667;SDS011;58242;51.250;-1.118;2023-04-03T14:43:50;2.33;;;2.15;;
70667;SDS011;58242;51.250;-1.118;2023-04-03T14:46:18;2.53;;;2.33;;
70667;SDS011;58242;51.250;-1.118;2023-04-03T14:48:43;3.67;;;2.60;;
70667;SDS011;58242;51.250;-1.118;2023-04-03T14:51:10;2.50;;;2.30;;
70667;SDS011;58242;51.250;-1.118;2023-04-03T14:53:37;3.10;;;2.70;;
70667;SDS011;58242;51.250;-1.118;2023-04-03T14:56:05;3.00;;;2.65;;
70667;SDS011;58242;51.250;-1.118;2023-04-03T14:58:36;2.13;;;1.92;;
70667;SDS011;58242;51.250;-1.118;2023-04-03T15:01:02;2.42;;;2.00;;
70667;SDS011;58242;51.250;-1.118;2023-04-03T15:03:27;2.65;;;2.45;;
70667;SDS011;58242;51.250;-1.118;2023-04-03T15:05:52;2.70;;;2.50;;
70667;SDS011;58242;51.250;-1.118;2023-04-03T15:08:19;2.63;;;2.42;;
70667;SDS011;58242;51.250;-1.118;2023-04-03T15:10:47;2.97;;;2.67;;
70667;SDS011;58242;51.250;-1.118;2023-04-03T15:13:13;2.92;;;2.60;;
70667;SDS011;58242;51.250;-1.118;2023-04-03T15:15:39;3.03;;;2.40;;
70667;SDS011;58242;51.250;-1.118;2023-04-03T15:18:05;2.90;;;2.60;;
70667;SDS011;58242;51.250;-1.118;2023-04-03T15:20:30;2.53;;;2.33;;
70667;SDS011;58242;51.250;-1.118;2023-04-03T15:22:58;3.38;;;2.22;;
70667;SDS011;58242;51.250;-1.118;2023-04-03T15:25:26;2.58;;;2.42;;
70667;SDS011;58242;51.250;-1.118;2023-04-03T15:27:52;3.28;;;2.47;;
70667;SDS011;58242;51.250;-1.118;2023-04-03T15:30:21;3.53;;;2.38;;
70667;SDS011;58242;51.250;-1.118;2023-04-03T15:32:47;2.10;;;1.95;;
70667;SDS011;58242;51.250;-1.118;2023-04-03T15:35:13;2.80;;;2.50;;
70667;SDS011;58242;51.250;-1.118;2023-04-03T15:37:39;2.50;;;2.30;;
70667;SDS011;58242;51.250;-1.118;2023-04-03T15:40:05;3.35;;;3.05;;
70667;SDS011;58242;51.250;-1.118;2023-04-03T15:42:30;3.08;;;2.88;;
70667;SDS011;58242;51.250;-1.118;2023-04-03T15:44:56;1.98;;;1.92;;
70667;SDS011;58242;51.250;-1.118;2023-04-03T15:47:21;3.10;;;2.80;;
70667;SDS011;58242;51.250;-1.118;2023-04-03T15:49:46;3.17;;;2.97;;
70667;SDS011;58242;51.250;-1.118;2023-04-03T15:52:12;2.92;;;2.72;;
70667;SDS011;58242;51.250;-1.118;2023-04-03T15:54:37;5.07;;;2.90;;
70667;SDS011;58242;51.250;-1.118;2023-04-03T15:57:03;3.00;;;2.80;;
70667;SDS011;58242;51.250;-1.118;2023-04-03T15:59:28;3.50;;;3.20;;
70667;SDS011;58242;51.250;-1.118;2023-04-03T16:01:55;2.70;;;2.53;;
70667;SDS011;58242;51.250;-1.118;2023-04-03T16:04:21;3.10;;;2.63;;
70667;SDS011;58242;51.250;-1.118;2023-04-03T16:06:46;3.13;;;2.83;;
70667;SDS011;58242;51.250;-1.118;2023-04-03T16:09:12;4.22;;;3.03;;
70667;SDS011;58242;51.250;-1.118;2023-04-03T16:11:37;3.10;;;2.90;;
70667;SDS011;58242;51.250;-1.118;2023-04-03T16:14:05;3.30;;;3.10;;
70667;SDS011;58242;51.250;-1.118;2023-04-03T16:16:33;3.00;;;2.80;;
70667;SDS011;58242;51.250;-1.118;2023-04-03T16:19:00;2.90;;;2.70;;
70667;SDS011;58242;51.250;-1.118;2023-04-03T16:21:26;4.35;;;4.05;;
70667;SDS011;58242;51.250;-1.118;2023-04-03T16:23:52;3.60;;;3.30;;
70667;SDS011;58242;51.250;-1.118;2023-04-03T16:26:17;3.80;;;3.50;;
70667;SDS011;58242;51.250;-1.118;2023-04-03T16:28:43;3.22;;;3.03;;
70667;SDS011;58242;51.250;-1.118;2023-04-03T16:31:08;3.38;;;3.08;;
70667;SDS011;58242;51.250;-1.118;2023-04-03T16:33:34;4.32;;;3.67;;
70667;SDS011;58242;51.250;-1.118;2023-04-03T16:36:00;4.43;;;3.28;;
70667;SDS011;58242;51.250;-1.118;2023-04-03T16:38:26;3.15;;;2.95;;
70667;SDS011;58242;51.250;-1.118;2023-04-03T16:40:51;3.28;;;3.00;;